Time;durP1;ratioP1;P1;durP2;ratioP2;P2;SDS_P1;SDS_P2;PMS_P1;PMS_P2;Temp;Humidity;BMP_temperature;BMP_pressure;BME280_temperature;BME280_humidity;BME280_pressure;Samples;Min_cycle;Max_cycle;Signal;HPM_P1;HPM_P2
2023/01/12 00:02:02;;;;;;;;;;;;;;;;;;5007258;28;20632;-78
2023/01/12 00:04:49;;;;;;;;;;;;;;;;;;5008298;28;20004;-79
2023/01/12 00:07:35;;;;;;;;;;;;;;;;;;5005195;28;19909;-78
2023/01/12 00:10:22;;;;;;;;;;;;;;;;;;5011841;28;19913;-78
2023/01/12 00:13:08;;;;;;;;;;;;;;;;;;5002934;28;19919;-79
2023/01/12 00:19:00;;;;;;;;;;;;;;;;;;5009050;28;19936;-77
2023/01/12 00:21:58;;;;;;;;;;;;;;;;;;4991802;28;19988;-78
2023/01/12 00:24:44;;;;;;;;;;;;;;;;;;5006197;28;19925;-78
2023/01/12 00:27:31;;;;;;;;;;;;;;;;;;5006987;28;19913;-78
2023/01/12 00:30:17;;;;;;;;;;;;;;;;;;5008777;28;20659;-78
2023/01/12 00:33:04;;;;;;;;;;;;;;;;;;5004141;28;19920;-78
2023/01/12 00:35:50;;;;;;;;;;;;;;;;;;5005785;28;19918;-79
2023/01/12 00:38:37;;;;;;;;;;;;;;;;;;5008781;28;19925;-78
2023/01/12 00:47:34;;;;;;;;;;;;;;;;;;5005265;28;20358;-77
2023/01/12 00:50:20;;;;;;;;;;;;;;;;;;5005469;28;19914;-76
2023/01/12 00:53:07;;;;;;;;;;;;;;;;;;5004511;28;20453;-77
2023/01/12 00:55:53;;;;;;;;;;;;;;;;;;5006183;28;19917;-79
2023/01/12 00:58:40;;;;;;;;;;;;;;;;;;5006928;28;20454;-77
2023/01/12 01:01:26;;;;;;;;;;;;;;;;;;5005352;28;19918;-78
2023/01/12 01:04:13;;;;;;;;;;;;;;;;;;5004459;28;20406;-77
2023/01/12 01:06:59;;;;;;;;;;;;;;;;;;4998005;28;20618;-78
2023/01/12 01:09:46;;;;;;;;;;;;;;;;;;5006863;28;19910;-78
2023/01/12 01:12:32;;;;;;;;;;;;;;;;;;5002683;28;19913;-78
2023/01/12 01:15:19;;;;;;;;;;;;;;;;;;5005094;28;20357;-78
2023/01/12 01:18:05;;;;;;;;;;;;;;;;;;5002953;28;19932;-77
2023/01/12 01:20:51;;;;;;;;;;;;;;;;;;5004993;28;19913;-81
2023/01/12 01:23:38;;;;;;;;;;;;;;;;;;5005676;28;20370;-78
2023/01/12 01:26:24;;;;;;;;;;;;;;;;;;5006720;28;19925;-77
2023/01/12 01:29:11;;;;;;;;;;;;;;;;;;5007544;28;19920;-78
2023/01/12 01:31:57;;;;;;;;;;;;;;;;;;5009125;28;19913;-78
2023/01/12 01:34:45;;;;;;;;;;;;;;;;;;5002474;28;19913;-79
2023/01/12 01:37:32;;;;;;;;;;;;;;;;;;5004632;28;20404;-79
2023/01/12 01:40:18;;;;;;;;;;;;;;;;;;5003499;28;19924;-83
2023/01/12 01:43:05;;;;;;;;;;;;;;;;;;5001100;28;20296;-80
2023/01/12 01:45:51;;;;;;;;;;;;;;;;;;4993385;28;19913;-78
2023/01/12 01:48:38;;;;;;;;;;;;;;;;;;5007534;28;19960;-78
2023/01/12 01:51:24;;;;;;;;;;;;;;;;;;5017885;28;19897;-81
2023/01/12 01:54:11;;;;;;;;;;;;;;;;;;5020143;28;19926;-79
2023/01/12 01:56:57;;;;;;;;;;;;;;;;;;5022313;28;19940;-80
2023/01/12 01:59:44;;;;;;;;;;;;;;;;;;5020322;28;20262;-78
2023/01/12 02:02:30;;;;;;;;;;;;;;;;;;5010496;28;19909;-78
2023/01/12 02:05:17;;;;;;;;;;;;;;;;;;5008498;28;19921;-77
2023/01/12 02:08:04;;;;;;;;;;;;;;;;;;5010901;28;19913;-78
2023/01/12 02:10:50;;;;;;;;;;;;;;;;;;5004395;28;19921;-79
2023/01/12 02:16:42;;;;;;;;;;;;;;;;;;4998769;28;19997;-78
2023/01/12 02:19:28;;;;;;;;;;;;;;;;;;5001555;28;19925;-78
2023/01/12 02:22:15;;;;;;;;;;;;;;;;;;4986212;28;19925;-79
2023/01/12 02:25:01;;;;;;;;;;;;;;;;;;5001247;28;19917;-79
2023/01/12 02:27:48;;;;;;;;;;;;;;;;;;5008644;28;19920;-78
2023/01/12 02:30:34;;;;;;;;;;;;;;;;;;5007979;28;19913;-78
2023/01/12 02:33:21;;;;;;;;;;;;;;;;;;5012036;28;20292;-77
2023/01/12 02:36:07;;;;;;;;;;;;;;;;;;5000892;28;19922;-77
2023/01/12 02:38:54;;;;;;;;;;;;;;;;;;5002861;28;20366;-78
2023/01/12 02:44:45;;;;;;;;;;;;;;;;;;5000319;28;19925;-78
2023/01/12 02:47:32;;;;;;;;;;;;;;;;;;5007527;28;19916;-80
2023/01/12 02:50:18;;;;;;;;;;;;;;;;;;5005822;28;19928;-78
2023/01/12 02:53:05;;;;;;;;;;;;;;;;;;5003130;28;19933;-78
2023/01/12 02:55:51;;;;;;;;;;;;;;;;;;4997722;28;20316;-80
2023/01/12 02:58:38;;;;;;;;;;;;;;;;;;5002484;28;19929;-79
2023/01/12 03:01:24;;;;;;;;;;;;;;;;;;5000914;28;20527;-79
2023/01/12 03:04:12;;;;;;;;;;;;;;;;;;5001401;28;19914;-79
2023/01/12 03:06:59;;;;;;;;;;;;;;;;;;5001174;28;19920;-80
2023/01/12 03:09:45;;;;;;;;;;;;;;;;;;4998406;28;19917;-79
2023/01/12 03:12:32;;;;;;;;;;;;;;;;;;5001755;28;19909;-81
2023/01/12 03:15:19;;;;;;;;;;;;;;;;;;5000689;28;19917;-79
2023/01/12 03:18:05;;;;;;;;;;;;;;;;;;5010316;28;19941;-79
2023/01/12 03:20:52;;;;;;;;;;;;;;;;;;5006518;28;19952;-78
2023/01/12 03:23:38;;;;;;;;;;;;;;;;;;5004171;28;19925;-80
2023/01/12 03:26:26;;;;;;;;;;;;;;;;;;5004075;28;20400;-83
2023/01/12 03:29:13;;;;;;;;;;;;;;;;;;5003351;28;19910;-82
2023/01/12 03:31:59;;;;;;;;;;;;;;;;;;5005951;28;20680;-80
2023/01/12 03:34:46;;;;;;;;;;;;;;;;;;5004150;28;19928;-79
2023/01/12 03:37:32;;;;;;;;;;;;;;;;;;5012882;28;20507;-79
2023/01/12 03:40:19;;;;;;;;;;;;;;;;;;5000993;28;19917;-80
2023/01/12 03:43:05;;;;;;;;;;;;;;;;;;5008157;28;19918;-78
2023/01/12 03:45:52;;;;;;;;;;;;;;;;;;5005323;28;20481;-77
2023/01/12 03:48:38;;;;;;;;;;;;;;;;;;5009898;28;19918;-79
2023/01/12 03:51:25;;;;;;;;;;;;;;;;;;5009453;28;19924;-77
2023/01/12 03:54:11;;;;;;;;;;;;;;;;;;5012455;28;19922;-78
2023/01/12 03:56:57;;;;;;;;;;;;;;;;;;5002430;28;19917;-77
2023/01/12 03:59:44;;;;;;;;;;;;;;;;;;5009151;28;19932;-78
2023/01/12 04:02:30;;;;;;;;;;;;;;;;;;5006012;28;19914;-79
2023/01/12 04:05:17;;;;;;;;;;;;;;;;;;5004957;28;19924;-78
2023/01/12 04:08:03;;;;;;;;;;;;;;;;;;5012299;28;19920;-78
2023/01/12 04:10:50;;;;;;;;;;;;;;;;;;5004736;28;20266;-79
2023/01/12 04:13:37;;;;;;;;;;;;;;;;;;5006716;28;19922;-78
2023/01/12 04:16:24;;;;;;;;;;;;;;;;;;5006244;28;19925;-78
2023/01/12 04:19:12;;;;;;;;;;;;;;;;;;5003674;28;19956;-78
2023/01/12 04:25:03;;;;;;;;;;;;;;;;;;5003882;28;19920;-78
2023/01/12 04:27:50;;;;;;;;;;;;;;;;;;4988383;28;20511;-77
2023/01/12 04:30:37;;;;;;;;;;;;;;;;;;5005286;28;19918;-79
2023/01/12 04:33:23;;;;;;;;;;;;;;;;;;5009278;28;20468;-79
2023/01/12 04:36:10;;;;;;;;;;;;;;;;;;5006644;28;19914;-79
2023/01/12 04:38:57;;;;;;;;;;;;;;;;;;5004381;28;19952;-79
2023/01/12 04:41:43;;;;;;;;;;;;;;;;;;5006310;28;19925;-78
2023/01/12 04:44:31;;;;;;;;;;;;;;;;;;5009181;28;19921;-79
2023/01/12 04:47:17;;;;;;;;;;;;;;;;;;5011755;28;19917;-78
2023/01/12 04:50:04;;;;;;;;;;;;;;;;;;5002188;28;19924;-78
2023/01/12 04:52:50;;;;;;;;;;;;;;;;;;5010820;28;19919;-78
2023/01/12 04:55:37;;;;;;;;;;;;;;;;;;5008934;28;20348;-78
2023/01/12 04:58:23;;;;;;;;;;;;;;;;;;5008849;28;19917;-78
2023/01/12 05:01:10;;;;;;;;;;;;;;;;;;5012265;28;19914;-79
2023/01/12 05:03:56;;;;;;;;;;;;;;;;;;5014592;28;20612;-80
2023/01/12 05:06:43;;;;;;;;;;;;;;;;;;5030292;28;20761;-80
2023/01/12 05:15:30;;;;;;;;;;;;;;;;;;5008412;28;20226;-81
2023/01/12 05:18:17;;;;;;;;;;;;;;;;;;5004384;28;19921;-82
2023/01/12 05:21:03;;;;;;;;;;;;;;;;;;5010933;28;20016;-80
2023/01/12 05:23:50;;;;;;;;;;;;;;;;;;5005808;28;19914;-79
2023/01/12 05:26:36;;;;;;;;;;;;;;;;;;5006428;28;19933;-80
2023/01/12 05:29:23;;;;;;;;;;;;;;;;;;5006197;28;20289;-81
2023/01/12 05:32:09;;;;;;;;;;;;;;;;;;5005209;28;20361;-78
2023/01/12 05:34:56;;;;;;;;;;;;;;;;;;5011107;28;19917;-77
2023/01/12 05:37:42;;;;;;;;;;;;;;;;;;5003905;28;20343;-77
2023/01/12 05:40:29;;;;;;;;;;;;;;;;;;5004498;28;19918;-77
2023/01/12 05:46:21;;;;;;;;;;;;;;;;;;5004352;28;19925;-78
2023/01/12 05:49:09;;;;;;;;;;;;;;;;;;5005764;28;20289;-77
2023/01/12 05:51:56;;;;;;;;;;;;;;;;;;5004112;28;19921;-77
2023/01/12 05:54:42;;;;;;;;;;;;;;;;;;4998323;28;19929;-78
2023/01/12 05:57:29;;;;;;;;;;;;;;;;;;5002702;28;19913;-78
2023/01/12 06:00:15;;;;;;;;;;;;;;;;;;4999876;28;20181;-79
2023/01/12 06:03:02;;;;;;;;;;;;;;;;;;5005720;28;19921;-78
2023/01/12 06:05:48;;;;;;;;;;;;;;;;;;5002289;28;19917;-79
2023/01/12 06:08:35;;;;;;;;;;;;;;;;;;5002903;28;20658;-78
2023/01/12 06:14:31;;;;;;;;;;;;;;;;;;4978352;28;19921;-79
2023/01/12 06:17:17;;;;;;;;;;;;;;;;;;4995925;28;19916;-78
2023/01/12 06:20:04;;;;;;;;;;;;;;;;;;5006287;28;19926;-79
2023/01/12 06:22:50;;;;;;;;;;;;;;;;;;4992464;28;19914;-79
2023/01/12 06:25:37;;;;;;;;;;;;;;;;;;5007554;28;19913;-78
2023/01/12 06:28:23;;;;;;;;;;;;;;;;;;5001508;28;20771;-79
2023/01/12 06:31:10;;;;;;;;;;;;;;;;;;5007903;28;19913;-77
2023/01/12 06:33:56;;;;;;;;;;;;;;;;;;5003545;28;19924;-78
2023/01/12 06:36:43;;;;;;;;;;;;;;;;;;5006810;28;19913;-78
2023/01/12 06:39:29;;;;;;;;;;;;;;;;;;5001575;28;19935;-78
2023/01/12 06:42:28;;;;;;;;;;;;;;;;;;5005938;28;19927;-78
2023/01/12 06:45:14;;;;;;;;;;;;;;;;;;5000346;28;19913;-79
2023/01/12 06:48:01;;;;;;;;;;;;;;;;;;5003079;28;19920;-78
2023/01/12 06:50:47;;;;;;;;;;;;;;;;;;5003907;28;19917;-78
2023/01/12 06:53:34;;;;;;;;;;;;;;;;;;5003868;28;20467;-79
2023/01/12 06:56:20;;;;;;;;;;;;;;;;;;5002192;28;19924;-78
2023/01/12 06:59:08;;;;;;;;;;;;;;;;;;4988853;28;19922;-78
2023/01/12 07:01:55;;;;;;;;;;;;;;;;;;5006004;28;19918;-80
2023/01/12 07:04:41;;;;;;;;;;;;;;;;;;5003741;28;19924;-79
2023/01/12 07:07:28;;;;;;;;;;;;;;;;;;5001470;28;19910;-78
2023/01/12 07:10:14;;;;;;;;;;;;;;;;;;5008413;28;19917;-79
2023/01/12 07:13:01;;;;;;;;;;;;;;;;;;5008273;28;19946;-79
2023/01/12 07:15:47;;;;;;;;;;;;;;;;;;5005271;28;19920;-80
2023/01/12 07:18:34;;;;;;;;;;;;;;;;;;5000060;28;19921;-79
2023/01/12 07:21:21;;;;;;;;;;;;;;;;;;5003174;28;19914;-79
2023/01/12 07:24:07;;;;;;;;;;;;;;;;;;5003068;28;20586;-80
2023/01/12 07:26:56;;;;;;;;;;;;;;;;;;5001726;28;19925;-80
2023/01/12 07:29:45;;;;;;;;;;;;;;;;;;5003561;28;19921;-79
2023/01/12 07:32:31;;;;;;;;;;;;;;;;;;5001362;28;19932;-78
2023/01/12 07:35:18;;;;;;;;;;;;;;;;;;5004665;28;19921;-79
2023/01/12 07:38:05;;;;;;;;;;;;;;;;;;5002271;28;19935;-78
2023/01/12 07:40:51;;;;;;;;;;;;;;;;;;5003391;28;19923;-80
2023/01/12 07:43:38;;;;;;;;;;;;;;;;;;5002665;28;19937;-82
2023/01/12 07:46:24;;;;;;;;;;;;;;;;;;5005031;28;19913;-80
2023/01/12 07:49:11;;;;;;;;;;;;;;;;;;5002934;28;19994;-80
2023/01/12 07:51:57;;;;;;;;;;;;;;;;;;5005893;28;19992;-80
2023/01/12 07:54:44;;;;;;;;;;;;;;;;;;5009856;28;19925;-80
2023/01/12 07:57:30;;;;;;;;;;;;;;;;;;4997761;28;19920;-80
2023/01/12 08:00:16;;;;;;;;;;;;;;;;;;5008141;28;19932;-80
2023/01/12 08:03:03;;;;;;;;;;;;;;;;;;5007939;28;19914;-80
2023/01/12 08:05:49;;;;;;;;;;;;;;;;;;5002423;28;19924;-80
2023/01/12 08:08:36;;;;;;;;;;;;;;;;;;5004047;28;20277;-80
2023/01/12 08:11:22;;;;;;;;;;;;;;;;;;4989120;28;19918;-80
2023/01/12 08:14:09;;;;;;;;;;;;;;;;;;5001543;28;20403;-80
2023/01/12 08:16:55;;;;;;;;;;;;;;;;;;5017804;28;19917;-82
2023/01/12 08:19:42;;;;;;;;;;;;;;;;;;5009573;28;19938;-80
2023/01/12 08:22:28;;;;;;;;;;;;;;;;;;5028684;28;19924;-80
2023/01/12 08:25:15;;;;;;;;;;;;;;;;;;5014369;28;20392;-82
2023/01/12 08:28:01;;;;;;;;;;;;;;;;;;5012556;28;19910;-80
2023/01/12 08:30:48;;;;;;;;;;;;;;;;;;5014105;28;19955;-79
2023/01/12 08:33:34;;;;;;;;;;;;;;;;;;5006541;28;20281;-81
2023/01/12 08:36:21;;;;;;;;;;;;;;;;;;5005399;28;20288;-81
2023/01/12 08:39:07;;;;;;;;;;;;;;;;;;4999763;28;19921;-80
2023/01/12 08:41:54;;;;;;;;;;;;;;;;;;5010199;28;19923;-80
2023/01/12 08:44:40;;;;;;;;;;;;;;;;;;5009150;28;19913;-80
2023/01/12 08:47:27;;;;;;;;;;;;;;;;;;5004544;28;19917;-79
2023/01/12 08:50:14;;;;;;;;;;;;;;;;;;5014790;28;19917;-79
2023/01/12 08:53:00;;;;;;;;;;;;;;;;;;5008370;28;20336;-79
2023/01/12 08:55:47;;;;;;;;;;;;;;;;;;5014966;28;19929;-79
2023/01/12 08:58:33;;;;;;;;;;;;;;;;;;5010221;28;19917;-78
2023/01/12 09:01:20;;;;;;;;;;;;;;;;;;5001709;28;19925;-80
2023/01/12 09:04:07;;;;;;;;;;;;;;;;;;4998945;28;19922;-82
2023/01/12 09:06:53;;;;;;;;;;;;;;;;;;5000360;28;19944;-81
2023/01/12 09:09:40;;;;;;;;;;;;;;;;;;5000991;28;19918;-81
2023/01/12 09:12:27;;;;;;;;;;;;;;;;;;4997511;28;20560;-81
2023/01/12 09:15:13;;;;;;;;;;;;;;;;;;5007403;28;20672;-80
2023/01/12 09:18:00;;;;;;;;;;;;;;;;;;5005147;28;19913;-81
2023/01/12 09:20:46;;;;;;;;;;;;;;;;;;5014819;28;19929;-81
2023/01/12 09:23:33;;;;;;;;;;;;;;;;;;5007132;28;19920;-79
2023/01/12 09:26:19;;;;;;;;;;;;;;;;;;5001393;28;19917;-80
2023/01/12 09:29:06;;;;;;;;;;;;;;;;;;5014296;28;20280;-80
2023/01/12 09:31:53;;;;;;;;;;;;;;;;;;5004630;28;19917;-84
2023/01/12 09:34:39;;;;;;;;;;;;;;;;;;5003703;28;19918;-81
2023/01/12 09:37:26;;;;;;;;;;;;;;;;;;5005342;28;19929;-79
2023/01/12 09:40:12;;;;;;;;;;;;;;;;;;5004773;28;19924;-83
2023/01/12 09:49:11;;;;;;;;;;;;;;;;;;5006505;28;19924;-80
2023/01/12 09:51:57;;;;;;;;;;;;;;;;;;5005283;28;19921;-81
2023/01/12 09:54:44;;;;;;;;;;;;;;;;;;5007800;28;20656;-81
2023/01/12 09:57:33;;;;;;;;;;;;;;;;;;5004591;28;19920;-82
2023/01/12 10:00:19;;;;;;;;;;;;;;;;;;5003511;28;19918;-81
2023/01/12 10:03:06;;;;;;;;;;;;;;;;;;5004636;28;19918;-81
2023/01/12 10:05:52;;;;;;;;;;;;;;;;;;5002109;28;19913;-78
2023/01/12 10:08:38;;;;;;;;;;;;;;;;;;5007037;28;19913;-80
2023/01/12 10:11:25;;;;;;;;;;;;;;;;;;5006297;28;19914;-79
2023/01/12 10:14:12;;;;;;;;;;;;;;;;;;5003855;28;19910;-80
2023/01/12 10:16:58;;;;;;;;;;;;;;;;;;5006158;28;19913;-79
2023/01/12 10:19:44;;;;;;;;;;;;;;;;;;4996904;28;19917;-81
2023/01/12 10:22:37;;;;;;;;;;;;;;;;;;5003070;28;19918;-81
2023/01/12 10:25:24;;;;;;;;;;;;;;;;;;5006759;28;19920;-79
2023/01/12 10:28:10;;;;;;;;;;;;;;;;;;5003079;28;19913;-80
2023/01/12 10:30:57;;;;;;;;;;;;;;;;;;5000060;28;20390;-81
2023/01/12 10:33:43;;;;;;;;;;;;;;;;;;5002311;28;19917;-80
2023/01/12 10:36:30;;;;;;;;;;;;;;;;;;5004687;28;19913;-81
2023/01/12 10:39:16;;;;;;;;;;;;;;;;;;5003810;28;19920;-80
2023/01/12 10:42:03;;;;;;;;;;;;;;;;;;5002115;28;19920;-80
2023/01/12 10:44:49;;;;;;;;;;;;;;;;;;5002168;28;19920;-81
2023/01/12 10:47:35;;;;;;;;;;;;;;;;;;5009342;28;19921;-81
2023/01/12 10:50:22;;;;;;;;;;;;;;;;;;5003582;28;19937;-80
2023/01/12 10:53:08;;;;;;;;;;;;;;;;;;5012084;28;19932;-80
2023/01/12 10:55:55;;;;;;;;;;;;;;;;;;4988915;28;19933;-79
2023/01/12 10:58:43;;;;;;;;;;;;;;;;;;5008563;28;19928;-80
2023/01/12 11:01:30;;;;;;;;;;;;;;;;;;5001303;28;19921;-79
2023/01/12 11:04:18;;;;;;;;;;;;;;;;;;5003815;28;21614;-79
2023/01/12 11:07:05;;;;;;;;;;;;;;;;;;4986445;28;19914;-80
2023/01/12 11:09:52;;;;;;;;;;;;;;;;;;5007178;28;19913;-83
2023/01/12 11:12:39;;;;;;;;;;;;;;;;;;5006856;28;20495;-80
2023/01/12 11:15:26;;;;;;;;;;;;;;;;;;5000341;28;19925;-81
2023/01/12 11:18:12;;;;;;;;;;;;;;;;;;5008710;28;19910;-80
2023/01/12 11:20:59;;;;;;;;;;;;;;;;;;5000695;28;19929;-80
2023/01/12 11:23:45;;;;;;;;;;;;;;;;;;5001318;28;19925;-80
2023/01/12 11:26:32;;;;;;;;;;;;;;;;;;5030514;28;19972;-80
2023/01/12 11:29:18;;;;;;;;;;;;;;;;;;5007476;28;19920;-81
2023/01/12 11:32:05;;;;;;;;;;;;;;;;;;5020246;28;20296;-81
2023/01/12 11:34:51;;;;;;;;;;;;;;;;;;5014787;28;19909;-82
2023/01/12 11:37:38;;;;;;;;;;;;;;;;;;5011333;28;19928;-80
2023/01/12 11:40:24;;;;;;;;;;;;;;;;;;5013892;28;19918;-80
2023/01/12 11:46:16;;;;;;;;;;;;;;;;;;5001826;28;19917;-81
2023/01/12 11:49:02;;;;;;;;;;;;;;;;;;5001239;28;20423;-80
2023/01/12 11:51:49;;;;;;;;;;;;;;;;;;5010319;28;19922;-80
2023/01/12 11:54:35;;;;;;;;;;;;;;;;;;5012238;28;19936;-80
2023/01/12 11:57:22;;;;;;;;;;;;;;;;;;5008555;28;19920;-80
2023/01/12 12:00:08;;;;;;;;;;;;;;;;;;5005753;28;19921;-82
2023/01/12 12:02:55;;;;;;;;;;;;;;;;;;5002034;28;19924;-80
2023/01/12 12:05:41;;;;;;;;;;;;;;;;;;5009150;28;19914;-80
2023/01/12 12:08:28;;;;;;;;;;;;;;;;;;5007580;28;20086;-81
2023/01/12 12:11:14;;;;;;;;;;;;;;;;;;5008143;28;19924;-79
2023/01/12 12:14:01;;;;;;;;;;;;;;;;;;4995894;28;19921;-79
2023/01/12 12:16:47;;;;;;;;;;;;;;;;;;5006126;28;19961;-81
2023/01/12 12:19:34;;;;;;;;;;;;;;;;;;5007490;28;20710;-81
2023/01/12 12:22:20;;;;;;;;;;;;;;;;;;5008058;28;19918;-83
2023/01/12 12:25:07;;;;;;;;;;;;;;;;;;5004790;28;19923;-79
2023/01/12 12:27:53;;;;;;;;;;;;;;;;;;5001970;28;20447;-84
2023/01/12 12:30:40;;;;;;;;;;;;;;;;;;5009138;28;20443;-84
2023/01/12 12:33:26;;;;;;;;;;;;;;;;;;5003329;28;19917;-85
2023/01/12 12:36:13;;;;;;;;;;;;;;;;;;5004150;28;19920;-84
2023/01/12 12:39:00;;;;;;;;;;;;;;;;;;5006496;28;19928;-84
2023/01/12 12:47:56;;;;;;;;;;;;;;;;;;5006991;28;19918;-84
2023/01/12 12:50:43;;;;;;;;;;;;;;;;;;5007840;28;20399;-84
2023/01/12 12:53:29;;;;;;;;;;;;;;;;;;5008334;28;19948;-83
2023/01/12 12:56:16;;;;;;;;;;;;;;;;;;4992223;28;19924;-83
2023/01/12 12:59:02;;;;;;;;;;;;;;;;;;5008499;28;19931;-83
2023/01/12 13:01:49;;;;;;;;;;;;;;;;;;5005477;28;19936;-84
2023/01/12 13:04:35;;;;;;;;;;;;;;;;;;5004423;28;19913;-85
2023/01/12 13:07:22;;;;;;;;;;;;;;;;;;5008368;28;19996;-84
2023/01/12 13:10:09;;;;;;;;;;;;;;;;;;5008596;28;20399;-84
2023/01/12 13:12:55;;;;;;;;;;;;;;;;;;5001653;28;19914;-84
2023/01/12 13:15:42;;;;;;;;;;;;;;;;;;5005570;28;20429;-83
2023/01/12 13:18:28;;;;;;;;;;;;;;;;;;5007869;28;19924;-84
2023/01/12 13:21:15;;;;;;;;;;;;;;;;;;5003561;28;19932;-86
2023/01/12 13:24:01;;;;;;;;;;;;;;;;;;5005401;28;20656;-85
2023/01/12 13:26:51;;;;;;;;;;;;;;;;;;5010564;28;19936;-85
2023/01/12 13:29:37;;;;;;;;;;;;;;;;;;5005958;28;19910;-84
2023/01/12 13:32:24;;;;;;;;;;;;;;;;;;5010274;28;19928;-84
2023/01/12 13:35:10;;;;;;;;;;;;;;;;;;5002049;28;20507;-85
2023/01/12 13:37:57;;;;;;;;;;;;;;;;;;5012179;28;19917;-84
2023/01/12 13:40:43;;;;;;;;;;;;;;;;;;5010629;28;19932;-88
2023/01/12 13:43:30;;;;;;;;;;;;;;;;;;5007038;28;19914;-84
2023/01/12 13:46:16;;;;;;;;;;;;;;;;;;5008316;28;19918;-87
2023/01/12 13:49:03;;;;;;;;;;;;;;;;;;5009898;28;19915;-86
2023/01/12 13:51:49;;;;;;;;;;;;;;;;;;5003556;28;19924;-87
2023/01/12 13:54:36;;;;;;;;;;;;;;;;;;5003744;28;19944;-86
2023/01/12 13:57:22;;;;;;;;;;;;;;;;;;5008510;28;19918;-85
2023/01/12 14:00:09;;;;;;;;;;;;;;;;;;5008157;28;19944;-86
2023/01/12 14:02:56;;;;;;;;;;;;;;;;;;5009386;28;19917;-87
2023/01/12 14:05:42;;;;;;;;;;;;;;;;;;5008586;28;19914;-86
2023/01/12 14:08:29;;;;;;;;;;;;;;;;;;5005820;28;19928;-86
2023/01/12 14:11:15;;;;;;;;;;;;;;;;;;5007843;28;19913;-86
2023/01/12 14:17:47;;;;;;;;;;;;;;;;;;5008528;28;19920;-86
2023/01/12 14:20:14;;;;;;;;;;;;;;;;;;5011695;28;19936;-86
2023/01/12 14:23:00;;;;;;;;;;;;;;;;;;5014161;28;19918;-89
2023/01/12 14:25:47;;;;;;;;;;;;;;;;;;5006743;28;19921;-86
2023/01/12 14:28:33;;;;;;;;;;;;;;;;;;5008067;28;20089;-87
2023/01/12 14:31:20;;;;;;;;;;;;;;;;;;5004285;28;19928;-87
2023/01/12 14:34:06;;;;;;;;;;;;;;;;;;5012685;28;19910;-89
2023/01/12 14:36:53;;;;;;;;;;;;;;;;;;5016935;28;20452;-87
2023/01/12 14:39:40;;;;;;;;;;;;;;;;;;5028527;28;19925;-85
2023/01/12 14:48:41;;;;;;;;;;;;;;;;;;5010946;28;19913;-86
2023/01/12 14:51:34;;;;;;;;;;;;;;;;;;5005883;28;20321;-88
2023/01/12 14:54:21;;;;;;;;;;;;;;;;;;5013489;28;19948;-87
2023/01/12 14:57:07;;;;;;;;;;;;;;;;;;5008580;28;19928;-88
2023/01/12 14:59:54;;;;;;;;;;;;;;;;;;5002166;28;19926;-86
2023/01/12 15:02:40;;;;;;;;;;;;;;;;;;5003677;28;20411;-86
2023/01/12 15:05:27;;;;;;;;;;;;;;;;;;5010788;28;20144;-88
2023/01/12 15:08:13;;;;;;;;;;;;;;;;;;5011843;28;19913;-89
2023/01/12 15:11:00;;;;;;;;;;;;;;;;;;5012985;28;19920;-88
2023/01/12 15:13:46;;;;;;;;;;;;;;;;;;5004390;28;19924;-87
2023/01/12 15:25:51;;;;;;;;;;;;;;;;;;5008264;28;19919;-88
2023/01/12 15:28:39;;;;;;;;;;;;;;;;;;5007182;28;19917;-88
2023/01/12 15:31:25;;;;;;;;;;;;;;;;;;5010477;28;19916;-86
2023/01/12 15:34:12;;;;;;;;;;;;;;;;;;5010641;28;19929;-88
2023/01/12 15:36:58;;;;;;;;;;;;;;;;;;5011153;28;19922;-86
2023/01/12 15:39:45;;;;;;;;;;;;;;;;;;5010179;28;19928;-87
2023/01/12 15:42:31;;;;;;;;;;;;;;;;;;5009294;28;19918;-85
2023/01/12 15:45:18;;;;;;;;;;;;;;;;;;5012544;28;19936;-85
2023/01/12 15:48:04;;;;;;;;;;;;;;;;;;5006680;28;19924;-86
2023/01/12 15:50:51;;;;;;;;;;;;;;;;;;5033384;28;19920;-84
2023/01/12 15:53:37;;;;;;;;;;;;;;;;;;5011639;28;19932;-84
2023/01/12 15:56:24;;;;;;;;;;;;;;;;;;5006592;28;20300;-84
2023/01/12 15:59:10;;;;;;;;;;;;;;;;;;5011198;28;19933;-84
2023/01/12 16:01:57;;;;;;;;;;;;;;;;;;5010403;28;19917;-85
2023/01/12 16:04:43;;;;;;;;;;;;;;;;;;5007150;28;19914;-84
2023/01/12 16:07:29;;;;;;;;;;;;;;;;;;5011358;28;19914;-82
2023/01/12 16:10:16;;;;;;;;;;;;;;;;;;5005530;28;20393;-86
2023/01/12 16:13:06;;;;;;;;;;;;;;;;;;5000008;28;19921;-85
2023/01/12 16:15:52;;;;;;;;;;;;;;;;;;5018676;28;19909;-85
2023/01/12 16:18:39;;;;;;;;;;;;;;;;;;5019772;28;20105;-86
2023/01/12 16:21:25;;;;;;;;;;;;;;;;;;5011879;28;19929;-86
2023/01/12 16:24:12;;;;;;;;;;;;;;;;;;5008898;28;19924;-87
2023/01/12 16:26:58;;;;;;;;;;;;;;;;;;5011945;28;19959;-87
2023/01/12 16:29:45;;;;;;;;;;;;;;;;;;5012969;28;19909;-86
2023/01/12 16:32:31;;;;;;;;;;;;;;;;;;5004770;28;19913;-87
2023/01/12 16:35:19;;;;;;;;;;;;;;;;;;5007632;28;21299;-87
2023/01/12 16:38:06;;;;;;;;;;;;;;;;;;5003031;28;19940;-87
2023/01/12 16:40:53;;;;;;;;;;;;;;;;;;5004283;28;19928;-87
2023/01/12 16:43:40;;;;;;;;;;;;;;;;;;5006595;28;19913;-88
2023/01/12 16:46:26;;;;;;;;;;;;;;;;;;5006623;28;20627;-87
2023/01/12 16:49:12;;;;;;;;;;;;;;;;;;5008415;28;19917;-87
2023/01/12 16:51:59;;;;;;;;;;;;;;;;;;5003978;28;19928;-87
2023/01/12 16:54:45;;;;;;;;;;;;;;;;;;5006238;28;20381;-87
2023/01/12 16:57:32;;;;;;;;;;;;;;;;;;5001909;28;19928;-87
2023/01/12 17:00:19;;;;;;;;;;;;;;;;;;5002124;28;19944;-87
2023/01/12 17:03:05;;;;;;;;;;;;;;;;;;5006575;28;19923;-87
2023/01/12 17:05:52;;;;;;;;;;;;;;;;;;5006829;28;19910;-87
2023/01/12 17:08:38;;;;;;;;;;;;;;;;;;5006554;28;20458;-82
2023/01/12 17:11:26;;;;;;;;;;;;;;;;;;5007571;28;19932;-85
2023/01/12 17:14:21;;;;;;;;;;;;;;;;;;5004707;28;19918;-85
2023/01/12 17:17:08;;;;;;;;;;;;;;;;;;5007618;28;20269;-85
2023/01/12 17:19:55;;;;;;;;;;;;;;;;;;5015129;28;19921;-84
2023/01/12 17:22:41;;;;;;;;;;;;;;;;;;5004909;28;19910;-86
2023/01/12 17:25:28;;;;;;;;;;;;;;;;;;5006214;28;19920;-83
2023/01/12 17:28:14;;;;;;;;;;;;;;;;;;5007355;28;19914;-82
2023/01/12 17:31:01;;;;;;;;;;;;;;;;;;5011153;28;19910;-83
2023/01/12 17:33:48;;;;;;;;;;;;;;;;;;5011192;28;19917;-84
2023/01/12 17:36:35;;;;;;;;;;;;;;;;;;5006150;28;19913;-85
2023/01/12 17:39:21;;;;;;;;;;;;;;;;;;5006738;28;19910;-84
2023/01/12 17:45:13;;;;;;;;;;;;;;;;;;5005603;28;19955;-84
2023/01/12 17:48:00;;;;;;;;;;;;;;;;;;5015789;28;20220;-84
2023/01/12 17:50:47;;;;;;;;;;;;;;;;;;5039829;28;19904;-84
2023/01/12 17:53:34;;;;;;;;;;;;;;;;;;5033623;28;19925;-82
2023/01/12 17:56:20;;;;;;;;;;;;;;;;;;5029698;28;19914;-85
2023/01/12 17:59:07;;;;;;;;;;;;;;;;;;5020678;28;19944;-86
2023/01/12 18:01:54;;;;;;;;;;;;;;;;;;5006847;28;19918;-86
2023/01/12 18:04:40;;;;;;;;;;;;;;;;;;5002021;28;19920;-85
2023/01/12 18:07:28;;;;;;;;;;;;;;;;;;5011149;28;19916;-84
2023/01/12 18:10:15;;;;;;;;;;;;;;;;;;5012767;28;19914;-85
2023/01/12 18:13:01;;;;;;;;;;;;;;;;;;5005444;28;19913;-86
2023/01/12 18:15:48;;;;;;;;;;;;;;;;;;5009893;28;19925;-87
2023/01/12 18:18:34;;;;;;;;;;;;;;;;;;5012536;28;19918;-86
2023/01/12 18:21:21;;;;;;;;;;;;;;;;;;5000672;28;19929;-87
2023/01/12 18:24:07;;;;;;;;;;;;;;;;;;5007491;28;19921;-87
2023/01/12 18:26:54;;;;;;;;;;;;;;;;;;5001281;28;19914;-86
2023/01/12 18:29:40;;;;;;;;;;;;;;;;;;5004353;28;19913;-86
2023/01/12 18:32:27;;;;;;;;;;;;;;;;;;5001723;28;19918;-88
2023/01/12 18:35:15;;;;;;;;;;;;;;;;;;4994060;28;19917;-88
2023/01/12 18:38:02;;;;;;;;;;;;;;;;;;5007205;28;19921;-87
2023/01/12 18:42:48;;;;;;;;;;;;;;;;;;5005109;28;20017;-87
2023/01/12 18:43:54;;;;;;;;;;;;;;;;;;5005447;28;19917;-84
2023/01/12 18:49:49;;;;;;;;;;;;;;;;;;5012023;28;20653;-85
2023/01/12 18:55:40;;;;;;;;;;;;;;;;;;5004469;28;19929;-83
2023/01/12 18:58:27;;;;;;;;;;;;;;;;;;5007186;28;19910;-84
2023/01/12 19:01:14;;;;;;;;;;;;;;;;;;5006188;28;19921;-85
2023/01/12 19:04:01;;;;;;;;;;;;;;;;;;5003021;28;19917;-83
2023/01/12 19:06:49;;;;;;;;;;;;;;;;;;5006869;28;19913;-82
2023/01/12 19:09:37;;;;;;;;;;;;;;;;;;5009833;28;20281;-83
2023/01/12 19:12:23;;;;;;;;;;;;;;;;;;5004684;28;19914;-82
2023/01/12 19:18:15;;;;;;;;;;;;;;;;;;5007554;28;19920;-84
2023/01/12 19:30:18;;;;;;;;;;;;;;;;;;5003683;28;19964;-82
2023/01/12 19:33:09;;;;;;;;;;;;;;;;;;5007002;28;19916;-80
2023/01/12 19:35:56;;;;;;;;;;;;;;;;;;5000931;28;19928;-81
2023/01/12 19:38:47;;;;;;;;;;;;;;;;;;5005212;28;19913;-82
2023/01/12 19:44:39;;;;;;;;;;;;;;;;;;5002208;28;19920;-81
2023/01/12 19:47:25;;;;;;;;;;;;;;;;;;5003581;28;20556;-80
2023/01/12 19:50:11;;;;;;;;;;;;;;;;;;5006605;28;19921;-81
2023/01/12 19:52:58;;;;;;;;;;;;;;;;;;5005100;28;19913;-81
2023/01/12 19:55:45;;;;;;;;;;;;;;;;;;5002636;28;19929;-82
2023/01/12 19:58:33;;;;;;;;;;;;;;;;;;4998257;28;19922;-80
2023/01/12 20:01:20;;;;;;;;;;;;;;;;;;5000947;28;19936;-82
2023/01/12 20:04:07;;;;;;;;;;;;;;;;;;5002758;28;19913;-82
2023/01/12 20:06:55;;;;;;;;;;;;;;;;;;5001009;28;19937;-82
2023/01/12 20:09:41;;;;;;;;;;;;;;;;;;5002019;28;20344;-79
2023/01/12 20:12:28;;;;;;;;;;;;;;;;;;5004525;28;20529;-81
2023/01/12 20:15:14;;;;;;;;;;;;;;;;;;5007613;28;19914;-79
2023/01/12 20:18:01;;;;;;;;;;;;;;;;;;5005334;28;20361;-80
2023/01/12 20:20:48;;;;;;;;;;;;;;;;;;5006859;28;19933;-80
2023/01/12 20:23:34;;;;;;;;;;;;;;;;;;5003152;28;19932;-81
2023/01/12 20:26:21;;;;;;;;;;;;;;;;;;5000713;28;20495;-79
2023/01/12 20:29:07;;;;;;;;;;;;;;;;;;5002746;28;19917;-78